Date,TemperatureHighF,TemperatureAvgF,TemperatureLowF,DewpointHighF,DewpointAvgF,DewpointLowF,HumidityHigh,HumidityAvg,HumidityLow,PressureMaxIn,PressureMinIn,WindSpeedMaxMPH,WindSpeedAvgMPH,GustSpeedMaxMPH,PrecipitationSumIn
2013-3-1,40,34,28,33,28,24,100,81,60,29.73,29.58,5,-668,10,0.00
2013-3-2,38,34,30,28,25,23,81,72,62,29.73,29.67,0,-999,0,0.00
2013-3-3,36,31,26,27,24,21,86,76,66,29.70,29.63,6,-785,8,0.04
2013-3-4,36,31,25,25,21,17,76,66,54,29.84,29.66,5,-654,14,0.00
2013-3-5,42,33,25,29,24,20,87,71,52,30.10,29.84,11,-714,11,0.00
2013-3-6,37,34,29,32,29,26,93,82,69,30.17,30.07,14,-471,20,0.03
2013-3-7,36,32,31,32,28,24,96,83,65,30.15,30.07,8,3,14,0.05
2013-3-8,38,32,27,32,28,26,97,87,65,30.25,30.03,6,2,11,0.13
2013-3-9,52,33,20,29,22,13,97,70,21,30.37,30.23,5,1,9,0.10
2013-3-10,48,33,18,30,25,16,95,74,44,30.43,30.27,3,1,6,0.02
2013-3-11,46,39,33,38,33,30,90,79,61,30.32,30.12,5,1,6,0.00
2013-3-12,48,43,39,48,42,37,100,97,85,30.12,29.69,4,1,9,0.71
2013-3-13,45,36,26,39,29,19,100,79,39,29.83,29.75,4,1,7,0.00
2013-3-14,30,25,19,26,13,4,92,61,43,29.89,29.76,5,1,9,0.00
2013-3-15,38,27,14,30,15,2,93,64,26,29.91,29.65,4,2,10,0.00
2013-3-16,30,28,25,27,25,23,92,90,86,29.77,29.74,2,0,5,0.00
2013-3-24,42,36,26,26,23,22,85,62,47,29.83,29.77,6,2,13,0.08
2013-3-25,43,33,21,29,24,19,94,73,51,29.81,29.55,6,2,11,0.00
2013-3-26,45,35,25,31,26,20,92,71,37,29.84,29.60,5,1,11,0.00
2013-3-27,50,33,19,30,24,17,94,72,33,29.93,29.80,7,1,14,0.00
2013-3-28,49,38,31,35,31,28,98,77,45,30.07,29.93,4,1,10,0.01
2013-3-29,54,39,28,34,30,26,96,74,38,30.10,30.01,5,1,7,0.00
2013-3-30,52,38,26,31,23,15,96,64,24,30.14,30.03,5,1,10,0.00
2013-3-31,54,38,20,39,26,18,98,69,29,30.15,29.77,6,1,13,0.15